Main page
METAR-TAF:

METAR-TAF

Airports :

Davenport Municipal Airport

Davenport, Iowa, United States

latitude: 41-36-50N, longitude: 090-35-29W, elevation: 751 ft

Current weather observation

The report was made 50 minutes ago, at 03:52 UTC
Wind 15 mph from the East/Southeast
Temperature 70°F
Humidity 83%
Pressure 29.99 in. Hg
Visibility: 10 miles
Few clouds at a height of 6000 ft
Broken clouds at a height of 10000 ft
Overcast at a height of 12000 ft

METAR: KDVN 260352Z AUTO 12013KT 10SM FEW060 BKN100 OVC120 21/18 A2999 RMK AO2 LTG DSNT NE AND E RAB09E25 SLP147 P0000 T02060178

Time: 23:42 (04:42 UTC)


TAF: missing

Weather observations and forecasts of more than 4000 airports (METAR and TAF reports).

The available stations are represented by yellow and red dots on the map.

Hover mouse over dot to see the name of the station.

Then click to see weather observations and forecasts.

To change the map : click on the green buttons with a black cross to zoom in, on the green button with a dash to zoom out, or on the green arrows for adjacent maps.


METAR-TAF: